KFOD

Fort Dodge Regional Airport

Airport
ICAO code
KFOD
IATA Code
FOD
Summary
ICAO Region
NAM
ICAO Territory
Location

Fort Dodge, Iowa

Serving
Fort Dodge
Elevation
1156 ft
Coordinates
42° 33' 9" N , 94° 11' 28" W
KCC
Airport CFIT
Altimeter Temperature Error Correction
Metar
KFOD 190556Z AUTO 00000KT 10SM CLR 02/M02 A3019 RMK AO2 SLP245 T00221022 10094 20022 51007 FZRANO

Fort Dodge Regional Airport is a public use airport located 3 nm north of the central business district of Fort Dodge, a city in Webster County, Iowa, USA.

Airport map

Aerial View

SKYbrary Partners:

Safety knowledge contributed by: